La rose des vents
Donnes mto: Semaine 06/10/08 - 12/10/08 (S 41)
Date Horaire Temp. E. Hum. E. P.atmo. Pluie Vent 1mn Direction Ensoleilleme Ev.Tr. Solaire P. de rose Temp au vent Rafales
06/10/2008 00:00 12,3 C 58 % 1016,8 hPa 0,0 l/m 6,2 km/h (2 Bft) O 0,00 h 0,051 mm 0 W/m 4,2 C 12,3 C 8,0 km/h (2 Bft)
06/10/2008 01:00 12,0 C 57 % 1016,6 hPa 0,0 l/m 5,9 km/h (2 Bft) O-NO 0,00 h 0,051 mm 0 W/m 3,8 C 12,0 C 7,5 km/h (2 Bft)
06/10/2008 02:00 11,4 C 59 % 1016,6 hPa 0,0 l/m 3,3 km/h (1 Bft) NO 0,00 h 0,051 mm 0 W/m 3,8 C 11,4 C 5,3 km/h (1 Bft)
06/10/2008 03:00 11,1 C 63 % 1016,5 hPa 0,0 l/m 3,5 km/h (1 Bft) NO 0,00 h 0,051 mm 0 W/m 4,3 C 11,1 C 5,3 km/h (1 Bft)
06/10/2008 04:00 11,5 C 66 % 1016,3 hPa 0,0 l/m 1,9 km/h (1 Bft) NO 0,00 h 0,051 mm 0 W/m 5,3 C 11,5 C 2,9 km/h (1 Bft)
06/10/2008 05:00 11,2 C 67 % 1016,3 hPa 0,0 l/m 1,8 km/h (1 Bft) NO 0,00 h 0,025 mm 0 W/m 5,4 C 11,2 C 2,9 km/h (1 Bft)
06/10/2008 06:00 11,3 C 68 % 1016,5 hPa 0,0 l/m 2,9 km/h (1 Bft) NO 0,00 h 0,025 mm 0 W/m 5,7 C 11,3 C 4,4 km/h (1 Bft)
06/10/2008 07:00 11,3 C 71 % 1016,9 hPa 0,0 l/m 3,7 km/h (1 Bft) NO 0,03 h 0,025 mm 12 W/m 6,2 C 11,3 C 5,1 km/h (1 Bft)
06/10/2008 08:00 12,5 C 71 % 1017,5 hPa 0,0 l/m 3,4 km/h (1 Bft) NO 0,58 h 0,025 mm 111 W/m 7,4 C 12,5 C 5,8 km/h (2 Bft)
06/10/2008 09:00 16,0 C 66 % 1017,6 hPa 0,0 l/m 1,7 km/h (1 Bft) N 0,85 h 0,076 mm 262 W/m 9,6 C 16,0 C 3,9 km/h (1 Bft)
06/10/2008 10:00 17,4 C 68 % 1018,2 hPa 0,0 l/m 3,9 km/h (1 Bft) E-NE 0,82 h 0,152 mm 376 W/m 11,5 C 17,4 C 6,6 km/h (2 Bft)
06/10/2008 11:00 18,8 C 63 % 1018,4 hPa 0,0 l/m 5,2 km/h (1 Bft) E 1,00 h 0,229 mm 547 W/m 11,6 C 18,8 C 8,5 km/h (2 Bft)
06/10/2008 12:00 19,3 C 61 % 1018,4 hPa 0,0 l/m 6,2 km/h (2 Bft) E 1,00 h 0,330 mm 604 W/m 11,6 C 19,3 C 10,7 km/h (2 Bft)
06/10/2008 13:00 19,6 C 60 % 1018,3 hPa 0,0 l/m 7,2 km/h (2 Bft) E 1,00 h 0,381 mm 620 W/m 11,7 C 19,6 C 12,2 km/h (2 Bft)
06/10/2008 14:00 19,9 C 61 % 1017,8 hPa 0,0 l/m 6,0 km/h (2 Bft) E 1,00 h 0,406 mm 582 W/m 12,1 C 19,9 C 10,7 km/h (2 Bft)
06/10/2008 15:00 20,0 C 62 % 1017,6 hPa 0,0 l/m 6,7 km/h (2 Bft) E 1,00 h 0,381 mm 494 W/m 12,4 C 20,0 C 11,1 km/h (2 Bft)
06/10/2008 16:00 19,9 C 60 % 1017,4 hPa 0,0 l/m 5,3 km/h (1 Bft) E 1,00 h 0,330 mm 366 W/m 11,8 C 19,9 C 8,5 km/h (2 Bft)
06/10/2008 17:00 19,2 C 60 % 1017,4 hPa 0,0 l/m 7,2 km/h (2 Bft) E-NE 1,00 h 0,254 mm 208 W/m 11,2 C 19,2 C 10,7 km/h (2 Bft)
06/10/2008 18:00 18,2 C 62 % 1017,4 hPa 0,0 l/m 5,1 km/h (1 Bft) E-NE 0,60 h 0,178 mm 55 W/m 10,7 C 18,2 C 7,4 km/h (2 Bft)
06/10/2008 19:00 15,7 C 69 % 1017,6 hPa 0,0 l/m 1,8 km/h (1 Bft) E-NE 0,00 h 0,076 mm 6 W/m 10,1 C 15,7 C 3,4 km/h (1 Bft)
06/10/2008 20:00 14,6 C 73 % 1017,9 hPa 0,0 l/m 2,1 km/h (1 Bft) E-NE 0,00 h 0,025 mm 0 W/m 9,8 C 14,6 C 3,6 km/h (1 Bft)
06/10/2008 21:00 14,5 C 73 % 1018,0 hPa 0,0 l/m 1,2 km/h (1 Bft) NO 0,00 h 0,025 mm 0 W/m 9,7 C 14,5 C 2,2 km/h (1 Bft)
06/10/2008 22:00 14,6 C 75 % 1018,5 hPa 0,0 l/m 1,9 km/h (1 Bft) O-NO 0,00 h 0,025 mm 0 W/m 10,2 C 14,6 C 3,5 km/h (1 Bft)
06/10/2008 23:00 14,3 C 77 % 1018,7 hPa 0,0 l/m 4,7 km/h (1 Bft) O-NO 0,00 h 0,025 mm 0 W/m 10,3 C 14,3 C 6,7 km/h (2 Bft)
07/10/2008 00:00 13,8 C 79 % 1018,6 hPa 0,0 l/m 4,8 km/h (1 Bft) O-NO 0,00 h 0,025 mm 0 W/m 10,1 C 13,8 C 6,5 km/h (2 Bft)
07/10/2008 01:00 13,9 C 80 % 1018,6 hPa 0,0 l/m 3,5 km/h (1 Bft) O-NO 0,00 h 0,025 mm 0 W/m 10,5 C 13,9 C 5,3 km/h (1 Bft)
07/10/2008 02:00 14,0 C 81 % 1018,4 hPa 0,0 l/m 3,6 km/h (1 Bft) O-NO 0,00 h 0,025 mm 0 W/m 10,8 C 14,0 C 5,6 km/h (1 Bft)
07/10/2008 03:00 13,8 C 82 % 1018,3 hPa 0,0 l/m 2,6 km/h (1 Bft) O-NO 0,00 h 0,025 mm 0 W/m 10,9 C 13,8 C 4,9 km/h (1 Bft)
07/10/2008 04:00 13,5 C 84 % 1018,1 hPa 0,0 l/m 2,1 km/h (1 Bft) O-NO 0,00 h 0,025 mm 0 W/m 10,9 C 13,5 C 4,4 km/h (1 Bft)
07/10/2008 05:00 13,7 C 85 % 1018,1 hPa 0,0 l/m 4,5 km/h (1 Bft) NO 0,00 h 0,025 mm 0 W/m 11,2 C 13,7 C 7,1 km/h (2 Bft)
07/10/2008 06:00 13,7 C 85 % 1018,2 hPa 0,0 l/m 5,3 km/h (1 Bft) NO 0,00 h 0,025 mm 0 W/m 11,3 C 13,7 C 7,8 km/h (2 Bft)
07/10/2008 07:00 13,8 C 83 % 1018,3 hPa 0,0 l/m 5,3 km/h (1 Bft) NO 0,02 h 0,025 mm 10 W/m 11,0 C 13,8 C 7,5 km/h (2 Bft)
07/10/2008 08:00 14,5 C 82 % 1018,5 hPa 0,0 l/m 4,9 km/h (1 Bft) NO 0,48 h 0,025 mm 95 W/m 11,5 C 14,5 C 7,7 km/h (2 Bft)
07/10/2008 09:00 16,6 C 74 % 1018,4 hPa 0,0 l/m 1,7 km/h (1 Bft) O-NO 0,93 h 0,076 mm 251 W/m 12,0 C 16,6 C 3,4 km/h (1 Bft)
07/10/2008 10:00 19,0 C 66 % 1018,4 hPa 0,0 l/m 3,4 km/h (1 Bft) E 1,00 h 0,152 mm 435 W/m 12,4 C 19,0 C 6,0 km/h (2 Bft)
07/10/2008 11:00 20,3 C 62 % 1018,3 hPa 0,0 l/m 4,6 km/h (1 Bft) E 0,88 h 0,279 mm 491 W/m 12,7 C 20,3 C 7,5 km/h (2 Bft)
07/10/2008 12:00 21,1 C 63 % 1018,1 hPa 0,0 l/m 7,0 km/h (2 Bft) E 0,85 h 0,305 mm 626 W/m 13,7 C 21,1 C 11,1 km/h (2 Bft)
07/10/2008 13:00 20,4 C 64 % 1017,6 hPa 0,0 l/m 7,1 km/h (2 Bft) E 0,15 h 0,381 mm 336 W/m 13,5 C 20,4 C 11,5 km/h (2 Bft)
07/10/2008 14:00 20,4 C 67 % 1017,1 hPa 0,0 l/m 7,7 km/h (2 Bft) E 0,50 h 0,254 mm 456 W/m 14,1 C 20,4 C 11,7 km/h (2 Bft)
07/10/2008 15:00 21,4 C 66 % 1016,7 hPa 0,0 l/m 6,5 km/h (2 Bft) E 1,00 h 0,305 mm 509 W/m 14,7 C 21,4 C 10,6 km/h (2 Bft)
07/10/2008 16:00 21,1 C 73 % 1016,2 hPa 0,0 l/m 11,2 km/h (2 Bft) S-SE 0,90 h 0,330 mm 415 W/m 16,0 C 21,1 C 15,6 km/h (3 Bft)
07/10/2008 17:00 19,7 C 80 % 1015,9 hPa 0,0 l/m 13,4 km/h (3 Bft) S 0,45 h 0,305 mm 161 W/m 16,1 C 19,7 C 18,2 km/h (3 Bft)
07/10/2008 18:00 18,2 C 86 % 1015,7 hPa 0,0 l/m 4,5 km/h (1 Bft) S-SO 0,00 h 0,127 mm 24 W/m 15,9 C 18,2 C 7,0 km/h (2 Bft)
07/10/2008 19:00 17,5 C 89 % 1016,0 hPa 0,0 l/m 4,5 km/h (1 Bft) SO 0,00 h 0,025 mm 0 W/m 15,6 C 17,5 C 6,2 km/h (2 Bft)
07/10/2008 20:00 16,8 C 90 % 1016,1 hPa 0,0 l/m 1,6 km/h (1 Bft) SO 0,00 h 0,025 mm 0 W/m 15,2 C 16,8 C 3,0 km/h (1 Bft)
07/10/2008 21:00 16,4 C 91 % 1016,2 hPa 0,0 l/m 2,8 km/h (1 Bft) SO 0,00 h 0,025 mm 0 W/m 14,9 C 16,4 C 4,5 km/h (1 Bft)
07/10/2008 22:00 16,3 C 92 % 1016,2 hPa 0,0 l/m 5,5 km/h (1 Bft) O-SO 0,00 h 0,025 mm 0 W/m 15,0 C 16,3 C 6,9 km/h (2 Bft)
07/10/2008 23:00 16,0 C 92 % 1016,3 hPa 0,0 l/m 6,3 km/h (2 Bft) O-SO 0,00 h 0,025 mm 0 W/m 14,7 C 16,0 C 8,6 km/h (2 Bft)
08/10/2008 00:00 15,6 C 92 % 1016,2 hPa 0,0 l/m 6,3 km/h (2 Bft) NO 0,00 h 0,025 mm 0 W/m 14,3 C 15,6 C 8,7 km/h (2 Bft)
08/10/2008 01:00 15,1 C 92 % 1016,0 hPa 0,0 l/m 3,5 km/h (1 Bft) N-NO 0,00 h 0,025 mm 0 W/m 13,9 C 15,1 C 5,2 km/h (1 Bft)
08/10/2008 02:00 14,8 C 92 % 1015,7 hPa 0,0 l/m 2,1 km/h (1 Bft) N-NO 0,00 h 0,025 mm 0 W/m 13,6 C 14,8 C 3,1 km/h (1 Bft)
08/10/2008 03:00 14,6 C 93 % 1015,7 hPa 0,0 l/m 2,4 km/h (1 Bft) SO 0,00 h 0,025 mm 0 W/m 13,4 C 14,6 C 3,2 km/h (1 Bft)
08/10/2008 04:00 14,1 C 92 % 1015,2 hPa 0,0 l/m 3,3 km/h (1 Bft) N-NO 0,00 h 0,025 mm 0 W/m 12,9 C 14,1 C 5,3 km/h (1 Bft)
08/10/2008 05:00 14,1 C 93 % 1015,1 hPa 0,0 l/m 0,4 km/h (0 Bft) N-NO 0,00 h 0,025 mm 0 W/m 12,9 C 14,1 C 1,1 km/h (0 Bft)
08/10/2008 06:00 14,0 C 93 % 1015,4 hPa 0,0 l/m 1,1 km/h (1 Bft) N-NO 0,00 h 0,000 mm 0 W/m 12,8 C 14,0 C 2,2 km/h (1 Bft)
08/10/2008 07:00 14,3 C 92 % 1015,5 hPa 0,0 l/m 2,6 km/h (1 Bft) NO 0,22 h 0,000 mm 18 W/m 13,1 C 14,3 C 3,9 km/h (1 Bft)
08/10/2008 08:00 15,1 C 92 % 1015,6 hPa 0,0 l/m 1,8 km/h (1 Bft) NO 0,50 h 0,000 mm 102 W/m 13,7 C 15,1 C 3,6 km/h (1 Bft)
08/10/2008 09:00 17,8 C 83 % 1015,7 hPa 0,0 l/m 5,3 km/h (1 Bft) E-NE 1,00 h 0,051 mm 281 W/m 14,9 C 17,8 C 8,0 km/h (2 Bft)
08/10/2008 10:00 19,0 C 77 % 1015,6 hPa 0,0 l/m 6,2 km/h (2 Bft) E-NE 0,57 h 0,178 mm 275 W/m 14,9 C 19,0 C 9,0 km/h (2 Bft)
08/10/2008 11:00 20,2 C 73 % 1015,7 hPa 0,0 l/m 10,7 km/h (2 Bft) E-NE 0,73 h 0,178 mm 435 W/m 15,3 C 20,2 C 16,1 km/h (3 Bft)
08/10/2008 12:00 20,4 C 71 % 1015,9 hPa 0,0 l/m 9,3 km/h (2 Bft) E 0,62 h 0,305 mm 453 W/m 14,9 C 20,4 C 15,1 km/h (3 Bft)
08/10/2008 13:00 19,8 C 70 % 1015,9 hPa 0,0 l/m 8,4 km/h (2 Bft) E 0,50 h 0,305 mm 423 W/m 14,2 C 19,8 C 14,0 km/h (3 Bft)
08/10/2008 14:00 20,1 C 69 % 1015,6 hPa 0,0 l/m 8,0 km/h (2 Bft) E 0,60 h 0,305 mm 363 W/m 14,2 C 20,1 C 12,8 km/h (3 Bft)
08/10/2008 15:00 19,2 C 73 % 1015,5 hPa 0,0 l/m 7,5 km/h (2 Bft) E 0,12 h 0,254 mm 232 W/m 14,2 C 19,2 C 12,0 km/h (2 Bft)
08/10/2008 16:00 18,7 C 76 % 1015,2 hPa 0,0 l/m 10,0 km/h (2 Bft) E-NE 0,00 h 0,178 mm 115 W/m 14,4 C 18,7 C 14,3 km/h (3 Bft)
08/10/2008 17:00 18,2 C 80 % 1015,0 hPa 0,0 l/m 10,9 km/h (2 Bft) E-NE 0,00 h 0,102 mm 54 W/m 14,6 C 18,2 C 15,7 km/h (3 Bft)
08/10/2008 18:00 17,8 C 83 % 1015,2 hPa 0,0 l/m 13,7 km/h (3 Bft) E-NE 0,00 h 0,076 mm 19 W/m 14,9 C 17,8 C 19,3 km/h (3 Bft)
08/10/2008 19:00 17,7 C 86 % 1015,8 hPa 0,0 l/m 13,0 km/h (3 Bft) E-NE 0,00 h 0,051 mm 0 W/m 15,3 C 17,7 C 18,7 km/h (3 Bft)
08/10/2008 20:00 17,5 C 87 % 1016,1 hPa 0,0 l/m 11,0 km/h (2 Bft) E-NE 0,00 h 0,025 mm 0 W/m 15,3 C 17,5 C 15,7 km/h (3 Bft)
08/10/2008 21:00 17,3 C 87 % 1016,4 hPa 0,0 l/m 5,6 km/h (1 Bft) E-NE 0,00 h 0,025 mm 0 W/m 15,1 C 17,3 C 7,8 km/h (2 Bft)
08/10/2008 22:00 16,9 C 87 % 1016,7 hPa 0,0 l/m 3,2 km/h (1 Bft) NE 0,00 h 0,025 mm 0 W/m 14,7 C 16,9 C 5,1 km/h (1 Bft)
08/10/2008 23:00 16,7 C 85 % 1016,9 hPa 0,0 l/m 2,7 km/h (1 Bft) NE 0,00 h 0,025 mm 0 W/m 14,1 C 16,7 C 5,4 km/h (1 Bft)
09/10/2008 00:00 16,2 C 83 % 1017,0 hPa 0,0 l/m 2,5 km/h (1 Bft) N 0,00 h 0,025 mm 0 W/m 13,3 C 16,2 C 4,8 km/h (1 Bft)
09/10/2008 01:00 15,9 C 82 % 1017,2 hPa 0,0 l/m 3,5 km/h (1 Bft) N-NE 0,00 h 0,025 mm 0 W/m 12,8 C 15,9 C 6,1 km/h (2 Bft)
09/10/2008 02:00 16,6 C 77 % 1017,5 hPa 0,0 l/m 5,3 km/h (1 Bft) N-NE 0,00 h 0,025 mm 0 W/m 12,6 C 16,6 C 8,3 km/h (2 Bft)
09/10/2008 03:00 17,0 C 73 % 1017,8 hPa 0,0 l/m 6,5 km/h (2 Bft) N-NE 0,00 h 0,025 mm 0 W/m 12,1 C 17,0 C 10,2 km/h (2 Bft)
09/10/2008 04:00 17,4 C 70 % 1018,2 hPa 0,0 l/m 8,1 km/h (2 Bft) N-NE 0,00 h 0,051 mm 0 W/m 12,0 C 17,4 C 12,1 km/h (2 Bft)
09/10/2008 05:00 17,6 C 70 % 1018,7 hPa 0,0 l/m 7,5 km/h (2 Bft) NE 0,00 h 0,051 mm 0 W/m 12,1 C 17,6 C 11,0 km/h (2 Bft)
09/10/2008 06:00 17,3 C 71 % 1019,2 hPa 0,0 l/m 7,6 km/h (2 Bft) NE 0,00 h 0,051 mm 0 W/m 12,0 C 17,3 C 11,2 km/h (2 Bft)
09/10/2008 07:00 16,4 C 72 % 1019,8 hPa 0,0 l/m 1,5 km/h (1 Bft) N-NE 0,07 h 0,051 mm 12 W/m 11,3 C 16,4 C 3,1 km/h (1 Bft)
09/10/2008 08:00 17,0 C 73 % 1020,6 hPa 0,0 l/m 0,0 km/h (0 Bft) N 0,72 h 0,025 mm 91 W/m 12,2 C 17,0 C 0,0 km/h (0 Bft)
09/10/2008 09:00 19,2 C 66 % 1021,0 hPa 0,0 l/m 1,6 km/h (1 Bft) NE 1,00 h 0,051 mm 257 W/m 12,6 C 19,2 C 3,1 km/h (1 Bft)
09/10/2008 10:00 21,7 C 55 % 1021,8 hPa 0,0 l/m 6,1 km/h (2 Bft) E 1,00 h 0,152 mm 407 W/m 12,3 C 21,7 C 9,2 km/h (2 Bft)
09/10/2008 11:00 22,8 C 52 % 1022,6 hPa 0,0 l/m 12,0 km/h (2 Bft) E 1,00 h 0,279 mm 528 W/m 12,3 C 22,8 C 17,3 km/h (3 Bft)
09/10/2008 12:00 23,1 C 55 % 1023,0 hPa 0,0 l/m 11,4 km/h (2 Bft) E-NE 1,00 h 0,406 mm 569 W/m 13,7 C 23,1 C 17,3 km/h (3 Bft)
09/10/2008 13:00 23,6 C 55 % 1023,3 hPa 0,0 l/m 12,2 km/h (2 Bft) E-NE 1,00 h 0,432 mm 636 W/m 13,9 C 23,6 C 18,1 km/h (3 Bft)
09/10/2008 14:00 23,7 C 55 % 1023,0 hPa 0,0 l/m 10,5 km/h (2 Bft) E-NE 1,00 h 0,483 mm 583 W/m 14,0 C 23,7 C 16,0 km/h (3 Bft)
09/10/2008 15:00 23,4 C 55 % 1023,0 hPa 0,0 l/m 6,3 km/h (2 Bft) E 1,00 h 0,432 mm 460 W/m 13,7 C 23,4 C 11,0 km/h (2 Bft)
09/10/2008 16:00 23,1 C 56 % 1023,2 hPa 0,0 l/m 4,3 km/h (1 Bft) E 0,98 h 0,330 mm 340 W/m 13,8 C 23,1 C 6,9 km/h (2 Bft)
09/10/2008 17:00 22,3 C 57 % 1023,5 hPa 0,0 l/m 2,6 km/h (1 Bft) E 0,78 h 0,254 mm 200 W/m 13,5 C 22,3 C 4,8 km/h (1 Bft)
09/10/2008 18:00 19,9 C 63 % 1024,1 hPa 0,0 l/m 0,5 km/h (0 Bft) S-SE 0,00 h 0,152 mm 25 W/m 12,8 C 19,9 C 1,3 km/h (1 Bft)
09/10/2008 19:00 18,3 C 69 % 1024,9 hPa 0,0 l/m 3,5 km/h (1 Bft) O-NO 0,00 h 0,025 mm 0 W/m 12,4 C 18,3 C 5,8 km/h (2 Bft)
09/10/2008 20:00 17,3 C 71 % 1025,3 hPa 0,0 l/m 3,6 km/h (1 Bft) NO 0,00 h 0,025 mm 0 W/m 11,9 C 17,3 C 5,5 km/h (1 Bft)
09/10/2008 21:00 17,1 C 66 % 1025,5 hPa 0,0 l/m 3,5 km/h (1 Bft) NO 0,00 h 0,051 mm 0 W/m 10,7 C 17,1 C 5,7 km/h (1 Bft)
09/10/2008 22:00 17,1 C 64 % 1025,7 hPa 0,0 l/m 4,3 km/h (1 Bft) O-NO 0,00 h 0,051 mm 0 W/m 10,3 C 17,1 C 6,3 km/h (2 Bft)
09/10/2008 23:00 16,8 C 64 % 1025,8 hPa 0,0 l/m 3,5 km/h (1 Bft) O-NO 0,00 h 0,051 mm 0 W/m 10,0 C 16,8 C 5,0 km/h (1 Bft)
10/10/2008 00:00 16,7 C 64 % 1026,1 hPa 0,0 l/m 5,8 km/h (2 Bft) O-NO 0,00 h 0,051 mm 0 W/m 9,7 C 16,7 C 8,0 km/h (2 Bft)
10/10/2008 01:00 16,6 C 64 % 1026,4 hPa 0,0 l/m 4,2 km/h (1 Bft) NO 0,00 h 0,051 mm 0 W/m 9,7 C 16,6 C 5,9 km/h (2 Bft)
10/10/2008 02:00 16,4 C 64 % 1026,7 hPa 0,0 l/m 3,8 km/h (1 Bft) NO 0,00 h 0,051 mm 0 W/m 9,6 C 16,4 C 5,6 km/h (1 Bft)
10/10/2008 03:00 16,0 C 66 % 1026,9 hPa 0,0 l/m 3,9 km/h (1 Bft) O-NO 0,00 h 0,051 mm 0 W/m 9,5 C 16,0 C 6,6 km/h (2 Bft)
10/10/2008 04:00 16,2 C 65 % 1026,8 hPa 0,0 l/m 4,4 km/h (1 Bft) NO 0,00 h 0,051 mm 0 W/m 9,5 C 16,2 C 6,4 km/h (2 Bft)
10/10/2008 05:00 16,0 C 65 % 1026,9 hPa 0,0 l/m 3,9 km/h (1 Bft) NO 0,00 h 0,051 mm 0 W/m 9,5 C 16,0 C 6,1 km/h (2 Bft)
10/10/2008 06:00 16,0 C 65 % 1027,3 hPa 0,0 l/m 3,7 km/h (1 Bft) O-NO 0,00 h 0,051 mm 0 W/m 9,4 C 16,0 C 5,9 km/h (2 Bft)
10/10/2008 07:00 15,5 C 66 % 1027,6 hPa 0,0 l/m 5,7 km/h (1 Bft) NO 0,03 h 0,051 mm 10 W/m 9,1 C 15,5 C 7,9 km/h (2 Bft)
10/10/2008 08:00 17,1 C 62 % 1028,0 hPa 0,0 l/m 3,9 km/h (1 Bft) NO 0,70 h 0,025 mm 90 W/m 9,6 C 17,1 C 6,4 km/h (2 Bft)
10/10/2008 09:00 19,3 C 56 % 1028,5 hPa 0,0 l/m 0,9 km/h (0 Bft) NO 1,00 h 0,076 mm 256 W/m 10,4 C 19,3 C 2,3 km/h (1 Bft)
10/10/2008 10:00 21,7 C 48 % 1028,9 hPa 0,0 l/m 1,0 km/h (0 Bft) NE 1,00 h 0,152 mm 408 W/m 10,3 C 21,7 C 2,8 km/h (1 Bft)
10/10/2008 11:00 24,1 C 40 % 1028,7 hPa 0,0 l/m 6,1 km/h (2 Bft) NE 1,00 h 0,254 mm 524 W/m 9,4 C 24,1 C 9,2 km/h (2 Bft)
10/10/2008 12:00 25,0 C 36 % 1028,6 hPa 0,0 l/m 7,7 km/h (2 Bft) E 1,00 h 0,381 mm 597 W/m 9,0 C 25,0 C 12,5 km/h (3 Bft)
10/10/2008 13:00 24,2 C 41 % 1028,8 hPa 0,0 l/m 8,6 km/h (2 Bft) E 1,00 h 0,457 mm 614 W/m 10,2 C 24,2 C 13,6 km/h (3 Bft)
10/10/2008 14:00 24,1 C 50 % 1028,4 hPa 0,0 l/m 7,4 km/h (2 Bft) E 1,00 h 0,457 mm 572 W/m 13,1 C 24,1 C 12,4 km/h (3 Bft)
10/10/2008 15:00 23,1 C 59 % 1028,2 hPa 0,0 l/m 5,3 km/h (1 Bft) E 1,00 h 0,406 mm 478 W/m 14,5 C 23,1 C 10,1 km/h (2 Bft)
10/10/2008 16:00 22,3 C 63 % 1028,3 hPa 0,0 l/m 3,3 km/h (1 Bft) SE 1,00 h 0,330 mm 343 W/m 15,0 C 22,3 C 6,2 km/h (2 Bft)
10/10/2008 17:00 21,8 C 63 % 1028,2 hPa 0,0 l/m 0,9 km/h (0 Bft) E-SE 1,00 h 0,229 mm 185 W/m 14,5 C 21,8 C 2,2 km/h (1 Bft)
10/10/2008 18:00 20,3 C 67 % 1028,2 hPa 0,0 l/m 0,0 km/h (0 Bft) N 0,57 h 0,127 mm 43 W/m 14,0 C 20,3 C 0,6 km/h (0 Bft)
10/10/2008 19:00 18,0 C 71 % 1028,4 hPa 0,0 l/m 0,7 km/h (0 Bft) E-SE 0,00 h 0,025 mm 0 W/m 12,7 C 18,0 C 1,1 km/h (1 Bft)
10/10/2008 20:00 16,9 C 75 % 1028,6 hPa 0,0 l/m 3,3 km/h (1 Bft) N-NO 0,00 h 0,000 mm 0 W/m 12,5 C 16,9 C 5,4 km/h (1 Bft)
10/10/2008 21:00 16,5 C 72 % 1028,9 hPa 0,0 l/m 4,1 km/h (1 Bft) NO 0,00 h 0,025 mm 0 W/m 11,4 C 16,5 C 6,8 km/h (2 Bft)
10/10/2008 22:00 16,9 C 64 % 1028,9 hPa 0,0 l/m 5,2 km/h (1 Bft) NO 0,00 h 0,051 mm 0 W/m 9,9 C 16,9 C 8,1 km/h (2 Bft)
10/10/2008 23:00 17,0 C 59 % 1028,8 hPa 0,0 l/m 6,1 km/h (2 Bft) NO 0,00 h 0,051 mm 0 W/m 8,9 C 17,0 C 9,2 km/h (2 Bft)
11/10/2008 00:00 17,6 C 56 % 1028,7 hPa 0,0 l/m 6,6 km/h (2 Bft) NO 0,00 h 0,076 mm 0 W/m 8,7 C 17,6 C 9,7 km/h (2 Bft)
11/10/2008 01:00 17,3 C 56 % 1028,6 hPa 0,0 l/m 4,2 km/h (1 Bft) NO 0,00 h 0,076 mm 0 W/m 8,5 C 17,3 C 6,3 km/h (2 Bft)
11/10/2008 02:00 16,3 C 59 % 1028,7 hPa 0,0 l/m 3,8 km/h (1 Bft) NO 0,00 h 0,051 mm 0 W/m 8,3 C 16,3 C 5,8 km/h (2 Bft)
11/10/2008 03:00 15,7 C 60 % 1028,7 hPa 0,0 l/m 4,2 km/h (1 Bft) O-NO 0,00 h 0,051 mm 0 W/m 8,1 C 15,7 C 5,7 km/h (1 Bft)
11/10/2008 04:00 15,8 C 59 % 1028,4 hPa 0,0 l/m 4,5 km/h (1 Bft) O-NO 0,00 h 0,051 mm 0 W/m 7,8 C 15,8 C 6,7 km/h (2 Bft)
11/10/2008 05:00 15,9 C 59 % 1028,3 hPa 0,0 l/m 4,6 km/h (1 Bft) NO 0,00 h 0,051 mm 0 W/m 7,8 C 15,9 C 6,7 km/h (2 Bft)
11/10/2008 06:00 15,7 C 59 % 1028,4 hPa 0,0 l/m 4,7 km/h (1 Bft) NO 0,00 h 0,051 mm 0 W/m 7,7 C 15,7 C 6,7 km/h (2 Bft)
11/10/2008 07:00 15,7 C 59 % 1028,7 hPa 0,0 l/m 4,8 km/h (1 Bft) NO 0,05 h 0,051 mm 10 W/m 7,7 C 15,7 C 6,6 km/h (2 Bft)
11/10/2008 08:00 16,9 C 55 % 1029,3 hPa 0,0 l/m 4,1 km/h (1 Bft) NO 0,67 h 0,025 mm 82 W/m 7,7 C 16,9 C 5,8 km/h (2 Bft)
11/10/2008 09:00 19,1 C 50 % 1029,8 hPa 0,0 l/m 1,3 km/h (1 Bft) NO 1,00 h 0,076 mm 244 W/m 8,4 C 19,1 C 2,7 km/h (1 Bft)
11/10/2008 10:00 22,4 C 48 % 1030,1 hPa 0,0 l/m 0,7 km/h (0 Bft) E-NE 1,00 h 0,152 mm 384 W/m 11,0 C 22,4 C 1,9 km/h (1 Bft)
11/10/2008 11:00 23,8 C 40 % 1030,0 hPa 0,0 l/m 3,1 km/h (1 Bft) E-NE 1,00 h 0,254 mm 507 W/m 9,4 C 23,8 C 5,3 km/h (1 Bft)
11/10/2008 12:00 25,1 C 35 % 1030,1 hPa 0,0 l/m 5,9 km/h (2 Bft) E 1,00 h 0,356 mm 583 W/m 8,6 C 25,1 C 10,1 km/h (2 Bft)
11/10/2008 13:00 24,1 C 45 % 1029,8 hPa 0,0 l/m 8,2 km/h (2 Bft) E 1,00 h 0,432 mm 603 W/m 11,2 C 24,1 C 12,1 km/h (2 Bft)
11/10/2008 14:00 23,5 C 52 % 1029,5 hPa 0,0 l/m 6,4 km/h (2 Bft) E 1,00 h 0,457 mm 564 W/m 13,0 C 23,5 C 10,0 km/h (2 Bft)
11/10/2008 15:00 23,4 C 51 % 1029,3 hPa 0,0 l/m 4,7 km/h (1 Bft) E 1,00 h 0,406 mm 469 W/m 12,6 C 23,4 C 9,0 km/h (2 Bft)
11/10/2008 16:00 22,9 C 55 % 1029,2 hPa 0,0 l/m 4,1 km/h (1 Bft) E 1,00 h 0,330 mm 325 W/m 13,4 C 22,9 C 7,1 km/h (2 Bft)
11/10/2008 17:00 21,8 C 59 % 1028,9 hPa 0,0 l/m 1,8 km/h (1 Bft) E 1,00 h 0,229 mm 168 W/m 13,5 C 21,8 C 3,8 km/h (1 Bft)
11/10/2008 18:00 20,2 C 66 % 1029,0 hPa 0,0 l/m 1,1 km/h (1 Bft) E 0,30 h 0,127 mm 39 W/m 13,5 C 20,2 C 2,7 km/h (1 Bft)
11/10/2008 19:00 17,9 C 75 % 1029,2 hPa 0,0 l/m 1,1 km/h (0 Bft) E 0,00 h 0,025 mm 0 W/m 13,4 C 17,9 C 2,3 km/h (1 Bft)
11/10/2008 20:00 16,7 C 76 % 1029,5 hPa 0,0 l/m 3,4 km/h (1 Bft) N 0,00 h 0,000 mm 0 W/m 12,4 C 16,7 C 5,2 km/h (1 Bft)
11/10/2008 21:00 16,3 C 68 % 1029,8 hPa 0,0 l/m 4,3 km/h (1 Bft) NO 0,00 h 0,025 mm 0 W/m 10,4 C 16,3 C 6,4 km/h (2 Bft)
11/10/2008 22:00 16,5 C 63 % 1029,7 hPa 0,0 l/m 4,5 km/h (1 Bft) NO 0,00 h 0,051 mm 0 W/m 9,5 C 16,5 C 6,6 km/h (2 Bft)
11/10/2008 23:00 16,4 C 61 % 1029,3 hPa 0,0 l/m 4,7 km/h (1 Bft) NO 0,00 h 0,051 mm 0 W/m 8,9 C 16,4 C 7,0 km/h (2 Bft)
12/10/2008 00:00 16,6 C 58 % 1029,0 hPa 0,0 l/m 3,1 km/h (1 Bft) NO 0,00 h 0,051 mm 0 W/m 8,3 C 16,6 C 4,6 km/h (1 Bft)
12/10/2008 01:00 16,1 C 58 % 1029,3 hPa 0,0 l/m 2,1 km/h (1 Bft) SO 0,00 h 0,051 mm 0 W/m 7,8 C 16,1 C 3,0 km/h (1 Bft)
12/10/2008 02:00 15,7 C 58 % 1029,4 hPa 0,0 l/m 3,2 km/h (1 Bft) O-NO 0,00 h 0,051 mm 0 W/m 7,6 C 15,7 C 4,4 km/h (1 Bft)
12/10/2008 03:00 15,0 C 59 % 1029,0 hPa 0,0 l/m 4,0 km/h (1 Bft) NO 0,00 h 0,051 mm 0 W/m 7,1 C 15,0 C 5,6 km/h (1 Bft)
12/10/2008 04:00 14,8 C 60 % 1028,2 hPa 0,0 l/m 2,8 km/h (1 Bft) NO 0,00 h 0,051 mm 0 W/m 7,0 C 14,8 C 4,2 km/h (1 Bft)
12/10/2008 05:00 14,1 C 61 % 1027,9 hPa 0,0 l/m 1,6 km/h (1 Bft) NO 0,00 h 0,051 mm 0 W/m 6,6 C 14,1 C 2,9 km/h (1 Bft)
12/10/2008 06:00 13,8 C 63 % 1027,7 hPa 0,0 l/m 3,2 km/h (1 Bft) N-NO 0,00 h 0,051 mm 0 W/m 6,8 C 13,8 C 4,4 km/h (1 Bft)
12/10/2008 07:00 14,1 C 61 % 1027,6 hPa 0,0 l/m 4,9 km/h (1 Bft) NO 0,13 h 0,051 mm 12 W/m 6,6 C 14,1 C 7,2 km/h (2 Bft)
12/10/2008 08:00 14,9 C 59 % 1028,0 hPa 0,0 l/m 4,2 km/h (1 Bft) O-NO 0,92 h 0,025 mm 93 W/m 7,0 C 14,9 C 6,5 km/h (2 Bft)
12/10/2008 09:00 18,3 C 54 % 1028,7 hPa 0,0 l/m 0,8 km/h (0 Bft) O 1,00 h 0,076 mm 225 W/m 8,8 C 18,3 C 2,0 km/h (1 Bft)
12/10/2008 10:00 20,9 C 48 % 1028,8 hPa 0,0 l/m 2,0 km/h (1 Bft) SO 1,00 h 0,127 mm 358 W/m 9,6 C 20,9 C 3,9 km/h (1 Bft)
12/10/2008 11:00 22,0 C 45 % 1028,8 hPa 0,0 l/m 4,6 km/h (1 Bft) S 1,00 h 0,229 mm 461 W/m 9,5 C 22,0 C 7,7 km/h (2 Bft)
12/10/2008 12:00 23,0 C 45 % 1028,2 hPa 0,0 l/m 5,6 km/h (1 Bft) E 1,00 h 0,330 mm 510 W/m 10,3 C 23,0 C 9,1 km/h (2 Bft)
12/10/2008 13:00 23,7 C 43 % 1027,5 hPa 0,0 l/m 5,1 km/h (1 Bft) E 1,00 h 0,356 mm 530 W/m 10,3 C 23,7 C 8,5 km/h (2 Bft)
12/10/2008 14:00 23,1 C 46 % 1026,8 hPa 0,0 l/m 7,4 km/h (2 Bft) S-SE 1,00 h 0,381 mm 488 W/m 10,8 C 23,1 C 11,3 km/h (2 Bft)
12/10/2008 15:00 22,7 C 49 % 1026,2 hPa 0,0 l/m 4,0 km/h (1 Bft) E 0,98 h 0,356 mm 346 W/m 11,5 C 22,7 C 7,3 km/h (2 Bft)
12/10/2008 16:00 21,6 C 59 % 1025,9 hPa 0,0 l/m 3,8 km/h (1 Bft) E-SE 0,57 h 0,254 mm 262 W/m 13,2 C 21,6 C 6,5 km/h (2 Bft)
12/10/2008 17:00 20,6 C 64 % 1025,6 hPa 0,0 l/m 3,7 km/h (1 Bft) S-SE 0,58 h 0,178 mm 139 W/m 13,6 C 20,6 C 6,1 km/h (2 Bft)
12/10/2008 18:00 18,6 C 71 % 1025,5 hPa 0,0 l/m 0,5 km/h (0 Bft) S-SE 0,02 h 0,102 mm 27 W/m 13,1 C 18,6 C 1,4 km/h (1 Bft)
12/10/2008 19:00 17,0 C 76 % 1025,5 hPa 0,0 l/m 0,3 km/h (0 Bft) S-SE 0,00 h 0,025 mm 0 W/m 12,8 C 17,0 C 0,7 km/h (0 Bft)
12/10/2008 20:00 16,0 C 80 % 1025,3 hPa 0,0 l/m 0,2 km/h (0 Bft) S-SE 0,00 h 0,000 mm 0 W/m 12,5 C 16,0 C 0,6 km/h (0 Bft)
12/10/2008 21:00 15,7 C 83 % 1024,9 hPa 0,0 l/m 2,0 km/h (1 Bft) O 0,00 h 0,025 mm 0 W/m 12,7 C 15,7 C 3,2 km/h (1 Bft)
12/10/2008 22:00 15,4 C 85 % 1025,1 hPa 0,0 l/m 2,2 km/h (1 Bft) O 0,00 h 0,025 mm 0 W/m 12,9 C 15,4 C 3,4 km/h (1 Bft)
12/10/2008 23:00 15,3 C 85 % 1025,1 hPa 0,0 l/m 1,6 km/h (1 Bft) NO 0,00 h 0,025 mm 0 W/m 12,8 C 15,3 C 2,6 km/h (1 Bft)
Min-Date _ 06/10/08 11/10/08 08/10/08 - 06/10/08 - - - - 06/10/08 06/10/08 06/10/08
_ Min-Heure 03:16 12:44 17:15 - 02:21 - - - - 02:25 03:16 03:01
Minimum _ 10,9 C 32 % 1014,9 hPa - 0,0 km/h (0 Bft) - - - - 3,2 C 10,9 C 0,0 km/h (0 Bft)
Max-Date _ 11/10/08 08/10/08 11/10/08 06/10/08 08/10/08 - 06/10/08 09/10/08 08/10/08 07/10/08 11/10/08 08/10/08
_ Max-Heure 12:41 01:06 12:00 00:00 19:53 - 07:45 14:00 13:47 16:38 12:41 19:54
Maximum _ 25,7 C 93 % 1030,3 hPa 0,0 l/m 22,5 km/h
E-NE (4 Bft)
- 0,02 h 0,483 mm 842 W/m 16,5 C 25,7 C 35,4 km/h
E-NE (5 Bft)
Moyenne _ 17,8 C 67 % 1022,4 hPa #0,0 l/m 4,6 km/h (1 Bft) NO #60:58 h #21,678 mm 311 W/m 11,3 C 17,8 C 7,1 km/h (2 Bft)
Roquefort les pins